Rangely, CO (81648)

12:01 AM MDT on May 23, 2015 (GMT -0600)
W. Prospect | | Change Station
CLOSE
Current Station
Personal Weather Station
Location: Rangely, CO
Elevation: 5224 ft
Nearby Weather Stations

Elev 5224 ft 40.09 °N, 108.81 °W | Updated 1 minute ago

Overcast
Overcast
46.2 °F
Feels Like 46 °F
N
0.0
Wind Variable Wind from SSW
Gusts 4.0 mph

Today
High -- | Low -- °F
--% Chance of Precip.
Yesterday
High -- | Low -- °F
Precip. -- in
5:53 AM 8:31 PM
Waxing Crescent, 27% visible
Pressure 29.91 in
Visibility 10.0 miles
Clouds Few 4200 ft
Overcast 6000 ft
Windchill 46 °F
Dew Point 39 °F
Humidity 75%
Rainfall 0.00 in
Snow Depth Not available.
UV 0 out of 12
Pollen 8.30 out of 12
Air Quality Not available.
Flu Activity Sporadic
METAR KVEL 230553Z AUTO 35005KT 10SM -RA FEW042 OVC060 10/06 A3000 RMK AO2 RAB44 SLP127 P0000 60000 T01000061 10122 20089 51029

More Conditions Fewer Conditions

Pressure 29.91 in
Visibility 10.0 miles
Clouds Few 4200 ft
Overcast 6000 ft
Windchill 46 °F
Dew Point 39 °F
Humidity 75%
Rainfall 0.00 in
Snow Depth Not available.
UV 0 out of 12
Pollen 8.30 out of 12
Air Quality Not available.
Flu Activity Sporadic
METAR KVEL 230553Z AUTO 35005KT 10SM -RA FEW042 OVC060 10/06 A3000 RMK AO2 RAB44 SLP127 P0000 60000 T01000061 10122 20089 51029

More Conditions Fewer Conditions

10-Day Weather Forecast

Almanac

Astronomy

May. 23, 2015 Rise Set
Actual Time
Civil Twilight
Nautical Twilight
Astronomical Twilight
Moon
Length of Visible Light
Length of Day
Tomorrow will be .
, % of the Moon is Illuminated

Today's Extremes

State Highs State Lows

Community

WunderPhotos

Upload Photos

1,823,393 photos uploaded!

WunderBlogs® & News

Nearby

Air Quality

  Air Quality AQ Index Pollutant
Not available.

Snow Depth

Station Depth Elevation

Earthquake Activity

City Distance Mag. Time & Date
Minimum magnitude displayed is 2.5.

Coastal Water Temperatures

Place Temperature

Stations

Nearby Weather Stations

Station Location Temp. Windchill Dew Point Humidity Wind Precip. Elev Updated Type